createdAt,value
2016-05-19T00:00:50.510Z,42.55
2016-05-19T00:01:50.043Z,42.16
2016-05-19T00:02:50.031Z,41.78
2016-05-19T00:03:50.034Z,42.07
2016-05-19T00:04:50.020Z,42.55
2016-05-19T00:05:49.992Z,42.26
2016-05-19T00:06:49.978Z,42.16
2016-05-19T00:07:49.966Z,42.55
2016-05-19T00:08:50.562Z,42.07
2016-05-19T00:09:49.940Z,42.16
2016-05-19T00:10:49.928Z,42.26
2016-05-19T00:11:49.914Z,42.16
2016-05-19T00:12:49.902Z,42.36
2016-05-19T00:13:49.889Z,42.36
2016-05-19T00:14:49.876Z,42.26
2016-05-19T00:15:49.863Z,42.46
2016-05-19T00:16:50.538Z,42.55
2016-05-19T00:17:49.837Z,42.65
2016-05-19T00:18:49.824Z,42.55
2016-05-19T00:19:49.796Z,42.55
2016-05-19T00:20:49.641Z,42.46
2016-05-19T00:21:49.785Z,42.46
2016-05-19T00:22:49.616Z,42.65
2016-05-19T00:23:49.774Z,42.65
2016-05-19T00:24:49.810Z,42.84
2016-05-19T00:25:49.749Z,42.65
2016-05-19T00:26:49.720Z,42.65
2016-05-19T00:27:49.707Z,42.55
2016-05-19T00:28:49.695Z,42.65
2016-05-19T00:29:49.682Z,42.65
2016-05-19T00:30:49.653Z,42.36
2016-05-19T00:31:49.640Z,42.65
2016-05-19T00:32:49.845Z,42.74
2016-05-19T00:33:49.629Z,42.84
2016-05-19T00:34:49.601Z,42.55
2016-05-19T00:35:49.589Z,42.65
2016-05-19T00:36:49.592Z,42.65
2016-05-19T00:37:49.578Z,42.55
2016-05-19T00:38:49.565Z,42.74
2016-05-19T00:39:49.553Z,42.55
2016-05-19T00:40:49.836Z,42.65
2016-05-19T00:41:49.526Z,42.65
2016-05-19T00:42:49.358Z,42.55
2016-05-19T00:43:49.485Z,42.65
2016-05-19T00:44:49.488Z,42.65
2016-05-19T00:45:49.475Z,42.65
2016-05-19T00:46:49.305Z,42.55
2016-05-19T00:47:49.496Z,42.55
2016-05-19T00:48:49.827Z,43.03
2016-05-19T00:49:49.422Z,42.74
2016-05-19T00:50:49.254Z,43.03
2016-05-19T00:51:49.397Z,42.84
2016-05-19T00:52:49.384Z,42.93
2016-05-19T00:53:49.371Z,42.84
2016-05-19T00:54:49.358Z,43.03
2016-05-19T00:55:49.486Z,43.03
2016-05-19T00:56:49.333Z,43.03
2016-05-19T00:57:49.319Z,43.13
2016-05-19T00:58:49.306Z,42.74
2016-05-19T00:59:49.294Z,42.93
2016-05-19T01:00:49.281Z,42.93
2016-05-19T01:01:49.251Z,42.93
2016-05-19T01:02:49.254Z,42.84
2016-05-19T01:03:49.554Z,42.93
2016-05-19T01:04:49.229Z,43.13
2016-05-19T01:05:49.216Z,42.65
2016-05-19T01:06:49.203Z,43.13
2016-05-19T01:07:49.190Z,43.32
2016-05-19T01:08:49.021Z,43.32
2016-05-19T01:09:49.008Z,43.41
2016-05-19T01:10:49.136Z,43.41
2016-05-19T01:11:49.528Z,43.61
2016-05-19T01:12:49.109Z,43.41
2016-05-19T01:13:49.112Z,43.32
2016-05-19T01:14:49.084Z,43.41
2016-05-19T01:15:49.086Z,43.41
2016-05-19T01:16:49.074Z,43.23
2016-05-19T01:17:48.905Z,43.41
2016-05-19T01:18:49.033Z,43.41
2016-05-19T01:19:49.332Z,43.32
2016-05-19T01:20:49.021Z,43.51
2016-05-19T01:21:48.994Z,43.23
2016-05-19T01:22:48.997Z,43.32
2016-05-19T01:23:49.202Z,43.61
2016-05-19T01:24:48.970Z,43.61
2016-05-19T01:25:48.957Z,43.03
2016-05-19T01:26:48.944Z,43.23
2016-05-19T01:27:49.479Z,43.32
2016-05-19T01:28:48.902Z,43.13
2016-05-19T01:29:48.890Z,43.03
2016-05-19T01:30:48.877Z,43.13
2016-05-19T01:31:48.879Z,43.32
2016-05-19T01:32:48.867Z,43.23
2016-05-19T01:33:48.838Z,43.41
2016-05-19T01:34:48.825Z,43.23
2016-05-19T01:35:49.515Z,43.32
2016-05-19T01:36:48.815Z,43.41
2016-05-19T01:37:48.645Z,43.32
2016-05-19T01:38:48.634Z,43.61
2016-05-19T01:39:48.775Z,43.41
2016-05-19T01:40:48.763Z,43.8
2016-05-19T01:41:48.750Z,43.8
2016-05-19T01:42:48.722Z,43.61
2016-05-19T01:43:48.772Z,43.61
2016-05-19T01:44:48.556Z,43.61
2016-05-19T01:45:48.683Z,43.61
2016-05-19T01:46:48.670Z,43.71
2016-05-19T01:47:48.516Z,43.61
2016-05-19T01:48:48.644Z,43.9
2016-05-19T01:49:48.491Z,43.41
2016-05-19T01:50:48.634Z,43.71
2016-05-19T01:51:48.808Z,43.71
2016-05-19T01:52:48.608Z,43.9
2016-05-19T01:53:48.580Z,43.8
2016-05-19T01:54:48.582Z,43.9
2016-05-19T01:55:48.554Z,43.9
2016-05-19T01:56:48.541Z,43.9
2016-05-19T01:57:48.527Z,43.8
2016-05-19T01:58:48.515Z,44.48
2016-05-19T01:59:48.815Z,44.09
2016-05-19T02:00:48.488Z,44.09
2016-05-19T02:01:48.320Z,44.09
2016-05-19T02:02:48.462Z,43.9
2016-05-19T02:03:48.293Z,44.19
2016-05-19T02:04:48.454Z,44.09
2016-05-19T02:05:48.424Z,44.09
2016-05-19T02:06:48.411Z,44.19
2016-05-19T02:07:49.554Z,44.09
2016-05-19T02:08:48.589Z,44.09
2016-05-19T02:09:48.388Z,44.09
2016-05-19T02:10:48.360Z,44.19
2016-05-19T02:11:48.347Z,44.19
2016-05-19T02:12:48.334Z,44.09
2016-05-19T02:13:48.321Z,44.09
2016-05-19T02:14:48.308Z,44.09
2016-05-19T02:15:48.295Z,43.8
2016-05-19T02:16:48.281Z,43.8
2016-05-19T02:17:48.113Z,43.8
2016-05-19T02:18:48.272Z,43.99
2016-05-19T02:19:48.243Z,43.8
2016-05-19T02:20:48.230Z,43.61
2016-05-19T02:21:48.217Z,43.8
2016-05-19T02:22:48.204Z,43.71
2016-05-19T02:23:48.222Z,43.61
2016-05-19T02:24:48.014Z,43.61
2016-05-19T02:25:48.158Z,43.61
2016-05-19T02:26:48.144Z,44.09
2016-05-19T02:27:48.132Z,43.8
2016-05-19T02:28:48.135Z,43.61
2016-05-19T02:29:48.122Z,44.09
2016-05-19T02:30:48.108Z,43.99
2016-05-19T02:31:47.924Z,43.9
2016-05-19T02:32:47.910Z,43.51
2016-05-19T02:33:48.054Z,43.9
2016-05-19T02:34:48.041Z,43.61
2016-05-19T02:35:48.044Z,43.41
2016-05-19T02:36:48.015Z,43.9
2016-05-19T02:37:48.018Z,43.71
2016-05-19T02:38:48.615Z,43.61
2016-05-19T02:39:47.992Z,43.71
2016-05-19T02:40:47.851Z,43.41
2016-05-19T02:41:48.022Z,43.71
2016-05-19T02:42:47.912Z,43.51
2016-05-19T02:43:48.084Z,43.51
2016-05-19T02:44:48.130Z,43.71
2016-05-19T02:45:48.141Z,43.71
2016-05-19T02:46:48.129Z,43.9
2016-05-19T02:47:48.146Z,43.99
2016-05-19T02:48:48.149Z,43.9
2016-05-19T02:49:47.980Z,43.71
2016-05-19T02:50:48.147Z,43.71
2016-05-19T02:51:47.984Z,43.71
2016-05-19T02:52:48.134Z,43.71
2016-05-19T02:53:47.969Z,43.71
2016-05-19T02:54:48.103Z,43.8
2016-05-19T02:55:48.109Z,43.8
2016-05-19T02:56:48.083Z,43.71
2016-05-19T02:57:48.071Z,43.8
2016-05-19T02:58:48.076Z,43.8
2016-05-19T02:59:48.065Z,43.8
2016-05-19T03:00:48.038Z,43.9
2016-05-19T03:01:48.041Z,43.61
2016-05-19T03:02:48.013Z,43.9
2016-05-19T03:03:48.001Z,43.61
2016-05-19T03:04:47.989Z,43.61
2016-05-19T03:05:47.977Z,43.8
2016-05-19T03:06:47.964Z,43.8
2016-05-19T03:07:47.966Z,43.71
2016-05-19T03:08:47.783Z,43.61
2016-05-19T03:09:47.925Z,43.8
2016-05-19T03:10:47.913Z,43.99
2016-05-19T03:11:47.900Z,43.61
2016-05-19T03:12:47.747Z,43.61
2016-05-19T03:13:47.875Z,43.99
2016-05-19T03:14:47.878Z,43.71
2016-05-19T03:15:47.849Z,43.61
2016-05-19T03:16:47.836Z,43.61
2016-05-19T03:17:47.823Z,43.8
2016-05-19T03:18:47.810Z,44.19
2016-05-19T03:19:47.797Z,43.99
2016-05-19T03:20:47.785Z,43.99
2016-05-19T03:21:47.771Z,43.99
2016-05-19T03:22:47.758Z,44.19
2016-05-19T03:23:47.745Z,44.28
2016-05-19T03:24:47.591Z,44.28
2016-05-19T03:25:47.735Z,44.28
2016-05-19T03:26:47.706Z,44.28
2016-05-19T03:27:47.693Z,44.28
2016-05-19T03:28:47.681Z,44.28
2016-05-19T03:29:47.668Z,43.99
2016-05-19T03:30:47.654Z,44.09
2016-05-19T03:31:47.642Z,44.09
2016-05-19T03:32:47.473Z,44.09
2016-05-19T03:33:47.616Z,44.09
2016-05-19T03:34:47.604Z,43.99
2016-05-19T03:35:47.590Z,44.28
2016-05-19T03:36:47.593Z,44.28
2016-05-19T03:37:47.564Z,43.99
2016-05-19T03:38:47.832Z,43.99
2016-05-19T03:39:47.539Z,44.19
2016-05-19T03:40:47.525Z,44.19
2016-05-19T03:41:47.528Z,44.09
2016-05-19T03:42:47.499Z,44.09
2016-05-19T03:43:47.486Z,43.99
2016-05-19T03:44:47.474Z,43.99
2016-05-19T03:45:47.460Z,44.19
2016-05-19T03:46:47.447Z,44.19
2016-05-19T03:47:47.435Z,43.9
2016-05-19T03:48:47.422Z,43.71
2016-05-19T03:49:47.253Z,43.71
2016-05-19T03:50:47.396Z,43.9
2016-05-19T03:51:47.368Z,43.61
2016-05-19T03:52:47.371Z,43.51
2016-05-19T03:53:47.577Z,43.61
2016-05-19T03:54:47.344Z,43.99
2016-05-19T03:55:47.332Z,43.61
2016-05-19T03:56:47.302Z,43.8
2016-05-19T03:57:47.305Z,43.61
2016-05-19T03:58:47.293Z,43.8
2016-05-19T03:59:47.279Z,43.61
2016-05-19T04:00:47.267Z,44.09
2016-05-19T04:01:47.253Z,44.09
2016-05-19T04:02:47.240Z,44.19
2016-05-19T04:03:47.243Z,44.19
2016-05-19T04:04:47.215Z,44.09
2016-05-19T04:05:47.201Z,44.09
2016-05-19T04:06:47.204Z,44.09
2016-05-19T04:07:47.176Z,43.9
2016-05-19T04:08:47.429Z,43.61
2016-05-19T04:09:46.995Z,44.19
2016-05-19T04:10:47.137Z,44.09
2016-05-19T04:11:47.125Z,43.61
2016-05-19T04:12:47.096Z,43.88
2016-05-19T04:13:46.927Z,43.8
2016-05-19T04:14:47.085Z,43.8
2016-05-19T04:15:47.166Z,43.8
2016-05-19T04:16:47.060Z,44.09
2016-05-19T04:17:47.031Z,44.19
2016-05-19T04:18:47.033Z,43.8
2016-05-19T04:19:47.021Z,43.8
2016-05-19T04:20:46.991Z,43.8
2016-05-19T04:21:46.994Z,43.88
2016-05-19T04:22:46.982Z,43.8
2016-05-19T04:23:47.157Z,43.68
2016-05-19T04:24:46.957Z,43.8
2016-05-19T04:25:46.787Z,43.71
2016-05-19T04:26:46.930Z,43.78
2016-05-19T04:27:46.902Z,43.99
2016-05-19T04:28:46.905Z,43.71
2016-05-19T04:29:46.735Z,43.8
2016-05-19T04:30:46.879Z,43.68
2016-05-19T04:31:47.163Z,43.71
2016-05-19T04:32:46.696Z,43.8
2016-05-19T04:33:46.824Z,43.9
2016-05-19T04:34:46.811Z,43.88
2016-05-19T04:35:46.798Z,43.78
2016-05-19T04:36:46.785Z,43.8
2016-05-19T04:37:46.772Z,43.71
2016-05-19T04:38:46.760Z,43.71
2016-05-19T04:39:47.153Z,43.59
2016-05-19T04:40:46.749Z,43.78
2016-05-19T04:41:46.721Z,43.78
2016-05-19T04:42:46.708Z,43.71
2016-05-19T04:43:46.711Z,43.71
2016-05-19T04:44:46.681Z,43.59
2016-05-19T04:45:46.669Z,43.71
2016-05-19T04:46:46.671Z,43.61
2016-05-19T04:47:47.237Z,43.88
2016-05-19T04:48:46.630Z,43.8
2016-05-19T04:49:46.617Z,43.99
2016-05-19T04:50:46.620Z,43.8
2016-05-19T04:51:46.591Z,44.09
2016-05-19T04:52:46.422Z,43.78
2016-05-19T04:53:46.424Z,44.09
2016-05-19T04:54:46.553Z,43.68
2016-05-19T04:55:47.196Z,43.99
2016-05-19T04:56:46.526Z,43.51
2016-05-19T04:57:46.514Z,43.59
2016-05-19T04:58:46.501Z,43.71
2016-05-19T04:59:46.332Z,43.59
2016-05-19T05:00:46.475Z,43.68
2016-05-19T05:01:46.462Z,43.59
2016-05-19T05:02:46.449Z,43.51
2016-05-19T05:03:46.436Z,43.68
2016-05-19T05:04:46.423Z,43.68
2016-05-19T05:05:46.410Z,44.07
2016-05-19T05:06:46.413Z,44.84
2016-05-19T05:07:46.228Z,44.84
2016-05-19T05:08:46.387Z,44.45
2016-05-19T05:09:46.359Z,44.07
2016-05-19T05:10:46.345Z,44.38
2016-05-19T05:11:46.489Z,44.55
2016-05-19T05:12:46.320Z,45.61
2016-05-19T05:13:46.307Z,46.21
2016-05-19T05:14:46.137Z,46.28
2016-05-19T05:15:46.281Z,47.24
2016-05-19T05:16:46.268Z,46.98
2016-05-19T05:17:46.255Z,47.36
2016-05-19T05:18:46.242Z,47.46
2016-05-19T05:19:46.480Z,46.31
2016-05-19T05:20:46.216Z,45.99
2016-05-19T05:21:46.203Z,45.73
2016-05-19T05:22:46.190Z,45.7
2016-05-19T05:23:46.349Z,45.63
2016-05-19T05:24:46.165Z,45.73
2016-05-19T05:25:46.152Z,45.51
2016-05-19T05:26:46.123Z,45.83
2016-05-19T05:27:46.516Z,45.9
2016-05-19T05:28:46.113Z,46.11
2016-05-19T05:29:46.100Z,45.92
2016-05-19T05:30:46.087Z,45.61
2016-05-19T05:31:46.074Z,45.44
2016-05-19T05:32:46.061Z,45.73
2016-05-19T05:33:45.892Z,45.51
2016-05-19T05:34:46.129Z,45.61
2016-05-19T05:35:47.226Z,45.8
2016-05-19T05:36:46.009Z,45.51
2016-05-19T05:37:45.981Z,45.7
2016-05-19T05:38:46.390Z,45.8
2016-05-19T05:39:45.955Z,45.34
2016-05-19T05:40:45.973Z,45.44
2016-05-19T05:41:45.789Z,45.42
2016-05-19T05:42:46.135Z,45.51
2016-05-19T05:43:45.920Z,45.25
2016-05-19T05:44:45.906Z,45.25
2016-05-19T05:45:45.878Z,45.51
2016-05-19T05:46:45.880Z,45.32
2016-05-19T05:47:45.867Z,45.22
2016-05-19T05:48:45.853Z,45.42
2016-05-19T05:49:45.686Z,45.22
2016-05-19T05:50:46.125Z,45.44
2016-05-19T05:51:45.659Z,45.42
2016-05-19T05:52:45.803Z,45.44
2016-05-19T05:53:45.617Z,45.61
2016-05-19T05:54:45.777Z,45.32
2016-05-19T05:55:45.608Z,45.22
2016-05-19T05:56:45.735Z,45.32
2016-05-19T05:57:45.582Z,45.34
2016-05-19T05:58:46.193Z,45.63
2016-05-19T05:59:45.696Z,45.53
2016-05-19T06:00:45.527Z,45.73
2016-05-19T06:01:45.514Z,45.51
2016-05-19T06:02:45.658Z,45.7
2016-05-19T06:03:45.660Z,45.42
2016-05-19T06:04:45.632Z,45.8
2016-05-19T06:05:45.619Z,45.32
2016-05-19T06:06:46.168Z,45.32
2016-05-19T06:07:45.609Z,45.42
2016-05-19T06:08:45.907Z,45.61
2016-05-19T06:09:45.567Z,45.42
2016-05-19T06:10:45.554Z,45.32
2016-05-19T06:11:45.384Z,45.32
2016-05-19T06:12:45.528Z,45.83
2016-05-19T06:13:45.531Z,46.01
2016-05-19T06:14:46.003Z,45.51
2016-05-19T06:15:45.490Z,45.51
2016-05-19T06:16:45.320Z,45.63
2016-05-19T06:17:45.479Z,45.53
2016-05-19T06:18:45.450Z,45.51
2016-05-19T06:19:45.453Z,45.92
2016-05-19T06:20:45.424Z,45.61
2016-05-19T06:21:45.412Z,45.7
2016-05-19T06:22:45.289Z,45.8
2016-05-19T06:23:45.386Z,45.8
2016-05-19T06:24:45.217Z,45.73
2016-05-19T06:25:45.361Z,45.51
2016-05-19T06:26:45.347Z,45.7
2016-05-19T06:27:45.333Z,45.9
2016-05-19T06:28:45.321Z,45.9
2016-05-19T06:29:45.308Z,45.9
2016-05-19T06:30:45.451Z,45.73
2016-05-19T06:31:45.299Z,45.63
2016-05-19T06:32:45.269Z,46.09
2016-05-19T06:33:45.257Z,45.9
2016-05-19T06:34:45.244Z,45.73
2016-05-19T06:35:45.074Z,45.92
2016-05-19T06:36:45.062Z,45.63
2016-05-19T06:37:45.204Z,46.09
2016-05-19T06:38:45.442Z,47.34
2016-05-19T06:39:45.195Z,47.34
2016-05-19T06:40:45.166Z,48.47
2016-05-19T06:41:44.996Z,48.57
2016-05-19T06:42:45.140Z,48.83
2016-05-19T06:43:45.127Z,49.02
2016-05-19T06:44:44.959Z,49.41
2016-05-19T06:45:45.101Z,49.6
2016-05-19T06:46:45.323Z,49.31
2016-05-19T06:47:45.076Z,49.6
2016-05-19T06:48:45.078Z,49.69
2016-05-19T06:49:45.049Z,49.79
2016-05-19T06:50:45.036Z,49.51
2016-05-19T06:51:45.023Z,49.99
2016-05-19T06:52:45.011Z,49.79
2016-05-19T06:53:44.842Z,49.89
2016-05-19T06:54:45.500Z,50.18
2016-05-19T06:55:44.972Z,50.08
2016-05-19T06:56:44.975Z,50.37
2016-05-19T06:57:44.947Z,50.46
2016-05-19T06:58:44.916Z,50.27
2016-05-19T06:59:44.905Z,50.46
2016-05-19T07:00:44.907Z,50.46
2016-05-19T07:01:44.879Z,50.46
2016-05-19T07:02:44.881Z,50.37
2016-05-19T07:03:44.868Z,50.66
2016-05-19T07:04:44.840Z,50.66
2016-05-19T07:05:44.671Z,50.76
2016-05-19T07:06:44.829Z,50.56
2016-05-19T07:07:44.660Z,50.08
2016-05-19T07:08:44.804Z,50.37
2016-05-19T07:09:44.790Z,50.37
2016-05-19T07:10:44.606Z,50.37
2016-05-19T07:11:44.749Z,50.56
2016-05-19T07:12:44.579Z,50.56
2016-05-19T07:13:44.567Z,50.76
2016-05-19T07:14:44.554Z,50.76
2016-05-19T07:15:44.697Z,50.56
2016-05-19T07:16:44.669Z,50.66
2016-05-19T07:17:44.515Z,50.85
2016-05-19T07:18:44.659Z,50.95
2016-05-19T07:19:44.645Z,50.54
2016-05-19T07:20:44.633Z,51.02
2016-05-19T07:21:44.620Z,50.82
2016-05-19T07:22:44.466Z,51.31
2016-05-19T07:23:44.594Z,51.21
2016-05-19T07:24:44.425Z,51.21
2016-05-19T07:25:44.412Z,51.21
2016-05-19T07:26:44.555Z,51.21
2016-05-19T07:27:44.542Z,51.21
2016-05-19T07:28:44.514Z,51.11
2016-05-19T07:29:44.517Z,51.11
2016-05-19T07:30:44.503Z,51.21
2016-05-19T07:31:44.475Z,50.92
2016-05-19T07:32:44.477Z,51.23
2016-05-19T07:33:44.465Z,50.73
2016-05-19T07:34:44.280Z,51.02
2016-05-19T07:35:44.424Z,51.14
2016-05-19T07:36:44.410Z,50.82
2016-05-19T07:37:44.397Z,51.02
2016-05-19T07:38:44.384Z,51.02
2016-05-19T07:39:44.231Z,51.11
2016-05-19T07:40:44.359Z,51.02
2016-05-19T07:41:44.345Z,51.79
2016-05-19T07:42:44.332Z,51.11
2016-05-19T07:43:44.163Z,51.4
2016-05-19T07:44:44.306Z,51.21
2016-05-19T07:45:44.294Z,51.21
2016-05-19T07:46:44.125Z,51.11
2016-05-19T07:47:44.267Z,51.31
2016-05-19T07:48:44.099Z,51.21
2016-05-19T07:49:44.243Z,51.23
2016-05-19T07:50:44.229Z,51.21
2016-05-19T07:51:44.217Z,51.02
2016-05-19T07:52:44.219Z,51.23
2016-05-19T07:53:44.940Z,51.23
2016-05-19T07:54:44.177Z,50.82
2016-05-19T07:55:44.164Z,51.02
2016-05-19T07:56:44.136Z,51.98
2016-05-19T07:57:44.123Z,51.79
2016-05-19T07:58:44.125Z,51.88
2016-05-19T07:59:44.097Z,51.69
2016-05-19T08:00:44.084Z,51.98
2016-05-19T08:01:44.071Z,51.88
2016-05-19T08:02:43.918Z,51.79
2016-05-19T08:03:44.060Z,51.69
2016-05-19T08:04:43.876Z,51.88
2016-05-19T08:05:44.019Z,51.88
2016-05-19T08:06:44.007Z,51.59
2016-05-19T08:07:43.838Z,51.31
2016-05-19T08:08:43.825Z,50.92
2016-05-19T08:09:43.968Z,50.92
2016-05-19T08:10:43.955Z,51.11
2016-05-19T08:11:43.785Z,50.92
2016-05-19T08:12:43.773Z,51.69
2016-05-19T08:13:43.916Z,50.92
2016-05-19T08:14:43.903Z,51.11
2016-05-19T08:15:43.890Z,51.21
2016-05-19T08:16:43.862Z,51.5
2016-05-19T08:17:43.865Z,51.02
2016-05-19T08:18:43.836Z,51.02
2016-05-19T08:19:43.823Z,50.92
2016-05-19T08:20:43.669Z,50.56
2016-05-19T08:21:43.812Z,50.56
2016-05-19T08:22:43.784Z,50.66
2016-05-19T08:23:44.474Z,50.66
2016-05-19T08:24:43.758Z,50.85
2016-05-19T08:25:43.744Z,50.37
2016-05-19T08:26:43.732Z,49.6
2016-05-19T08:27:43.719Z,48.83
2016-05-19T08:28:43.706Z,48.66
2016-05-19T08:29:43.694Z,48.47
2016-05-19T08:30:43.680Z,48.38
2016-05-19T08:31:43.511Z,47.89
2016-05-19T08:32:43.655Z,47.89
2016-05-19T08:33:43.641Z,47.8
2016-05-19T08:34:43.614Z,47.7
2016-05-19T08:35:43.616Z,47.92
2016-05-19T08:36:43.603Z,47.7
2016-05-19T08:37:43.590Z,47.24
2016-05-19T08:38:43.890Z,47.41
2016-05-19T08:39:43.563Z,47.24
2016-05-19T08:40:43.535Z,47.15
2016-05-19T08:41:43.523Z,47.34
2016-05-19T08:42:43.526Z,47.34
2016-05-19T08:43:43.529Z,47.24
2016-05-19T08:44:43.499Z,47.05
2016-05-19T08:45:43.471Z,47.15
2016-05-19T08:46:43.457Z,47.05
2016-05-19T08:47:43.445Z,47.15
2016-05-19T08:48:43.431Z,46.95
2016-05-19T08:49:43.419Z,47.34
2016-05-19T08:50:43.390Z,46.38
2016-05-19T08:51:43.393Z,46.28
2016-05-19T08:52:43.380Z,46.86
2016-05-19T08:53:43.914Z,47.05
2016-05-19T08:54:43.479Z,47.24
2016-05-19T08:55:43.342Z,46.77
2016-05-19T08:56:43.328Z,47.24
2016-05-19T08:57:43.331Z,47.53
2016-05-19T08:58:43.302Z,47.56
2016-05-19T08:59:43.289Z,47.27
2016-05-19T09:00:43.277Z,46.77
2016-05-19T09:01:43.264Z,46.31
2016-05-19T09:02:43.501Z,47.08
2016-05-19T09:03:43.066Z,46.59
2016-05-19T09:04:43.210Z,47.46
2016-05-19T09:05:43.197Z,47.36
2016-05-19T09:06:43.199Z,47.56
2016-05-19T09:07:43.185Z,46.69
2016-05-19T09:08:43.173Z,46.31
2016-05-19T09:09:43.160Z,46.5
2016-05-19T09:10:43.585Z,46.31
2016-05-19T09:11:43.118Z,46.21
2016-05-19T09:12:43.122Z,46.4
2016-05-19T09:13:43.109Z,46.21
2016-05-19T09:14:43.079Z,46.5
2016-05-19T09:15:43.068Z,46.21
2016-05-19T09:16:43.054Z,46.21
2016-05-19T09:17:43.057Z,46.23
2016-05-19T09:18:43.590Z,46.33
2016-05-19T09:19:43.016Z,46.04
2016-05-19T09:20:43.018Z,46.23
2016-05-19T09:21:43.005Z,46.23
2016-05-19T09:22:42.976Z,45.75
2016-05-19T09:23:42.964Z,45.65
2016-05-19T09:24:42.951Z,45.65
2016-05-19T09:25:42.937Z,45.65
2016-05-19T09:26:43.581Z,45.65
2016-05-19T09:27:42.927Z,46.14
2016-05-19T09:28:42.899Z,45.56
2016-05-19T09:29:42.902Z,45.75
2016-05-19T09:30:42.733Z,45.56
2016-05-19T09:31:42.845Z,45.36
2016-05-19T09:32:42.691Z,45.27
2016-05-19T09:33:42.819Z,45.17
2016-05-19T09:34:43.571Z,45.84
2016-05-19T09:35:42.808Z,45.36
2016-05-19T09:36:42.795Z,45.17
2016-05-19T09:37:42.799Z,45.75
2016-05-19T09:38:42.973Z,45.65
2016-05-19T09:39:42.772Z,45.84
2016-05-19T09:40:42.744Z,45.17
2016-05-19T09:41:42.574Z,45.17
2016-05-19T09:42:42.780Z,45.27
2016-05-19T09:43:42.705Z,45.36
2016-05-19T09:44:42.692Z,45.17
2016-05-19T09:45:42.679Z,45.56
2016-05-19T09:46:42.666Z,45.07
2016-05-19T09:47:42.638Z,45.36
2016-05-19T09:48:42.640Z,45.07
2016-05-19T09:49:42.627Z,45.27
2016-05-19T09:50:42.802Z,45.56
2016-05-19T09:51:42.599Z,45.46
2016-05-19T09:52:42.601Z,45.56
2016-05-19T09:53:42.573Z,45.36
2016-05-19T09:54:42.576Z,45.46
2016-05-19T09:55:42.547Z,45.75
2016-05-19T09:56:42.550Z,45.36
2016-05-19T09:57:42.506Z,45.36
2016-05-19T09:58:42.789Z,45.07
2016-05-19T09:59:42.495Z,45.27
2016-05-19T10:00:42.483Z,45.17
2016-05-19T10:01:42.453Z,45.56
2016-05-19T10:02:42.456Z,45.1
2016-05-19T10:03:42.428Z,45.46
2016-05-19T10:04:42.415Z,45.17
2016-05-19T10:05:42.605Z,45.27
2016-05-19T10:06:42.795Z,45.29
2016-05-19T10:07:42.236Z,45.1
2016-05-19T10:08:42.692Z,45.07
2016-05-19T10:09:42.366Z,45.1
2016-05-19T10:10:42.338Z,45
2016-05-19T10:11:42.324Z,45.2
2016-05-19T10:12:42.327Z,45.17
2016-05-19T10:13:42.502Z,45.2
2016-05-19T10:14:42.317Z,45
2016-05-19T10:15:42.273Z,45.27
2016-05-19T10:16:42.260Z,44.71
2016-05-19T10:17:42.263Z,45.1
2016-05-19T10:18:42.249Z,45.36
2016-05-19T10:19:42.237Z,44.81
2016-05-19T10:20:42.208Z,45.1
2016-05-19T10:21:42.508Z,45.07
2016-05-19T10:22:42.198Z,45.39
2016-05-19T10:23:42.045Z,44.81
2016-05-19T10:24:42.156Z,45
2016-05-19T10:25:42.143Z,44.81
2016-05-19T10:26:42.131Z,45.1
2016-05-19T10:27:42.118Z,45.07
2016-05-19T10:28:42.120Z,44.9
2016-05-19T10:29:43.764Z,45.1
2016-05-19T10:30:42.079Z,44.98
2016-05-19T10:31:42.066Z,44.71
2016-05-19T10:32:42.069Z,44.81
2016-05-19T10:33:42.040Z,44.81
2016-05-19T10:34:42.028Z,44.71
2016-05-19T10:35:42.014Z,44.9
2016-05-19T10:36:42.001Z,44.62
2016-05-19T10:37:41.988Z,44.71
2016-05-19T10:38:41.819Z,44.42
2016-05-19T10:39:41.963Z,44.81
2016-05-19T10:40:41.794Z,44.62
2016-05-19T10:41:41.764Z,44.71
2016-05-19T10:42:41.924Z,44.71
2016-05-19T10:43:43.645Z,44.52
2016-05-19T10:44:41.741Z,44.42
2016-05-19T10:45:41.885Z,44.52
2016-05-19T10:46:41.872Z,44.42
2016-05-19T10:47:41.703Z,44.52
2016-05-19T10:48:41.846Z,44.42
2016-05-19T10:49:41.849Z,44.52
2016-05-19T10:50:41.820Z,44.59
2016-05-19T10:51:41.807Z,44.42
2016-05-19T10:52:41.794Z,44.52
2016-05-19T10:53:41.657Z,44.42
2016-05-19T10:54:41.768Z,44.52
2016-05-19T10:55:41.756Z,44.52
2016-05-19T10:56:41.743Z,44.23
2016-05-19T10:57:41.573Z,44.52
2016-05-19T10:58:41.716Z,44.52
2016-05-19T10:59:41.704Z,44.52
2016-05-19T11:00:41.707Z,44.62
2016-05-19T11:01:41.678Z,44.52
2016-05-19T11:02:41.665Z,44.42
2016-05-19T11:03:41.652Z,44.42
2016-05-19T11:04:41.639Z,44.52
2016-05-19T11:05:41.641Z,44.32
2016-05-19T11:06:41.628Z,44.52
2016-05-19T11:07:41.600Z,44.23
2016-05-19T11:08:41.603Z,44.13
2016-05-19T11:09:41.575Z,44.52
2016-05-19T11:10:41.561Z,44.23
2016-05-19T11:11:41.391Z,43.85
2016-05-19T11:12:41.535Z,44.04
2016-05-19T11:13:41.367Z,43.46
2016-05-19T11:14:41.510Z,43.85
2016-05-19T11:15:41.497Z,44.04
2016-05-19T11:16:41.483Z,44.04
2016-05-19T11:17:41.471Z,44.13
2016-05-19T11:18:41.457Z,44.52
2016-05-19T11:19:41.445Z,43.85
2016-05-19T11:20:41.448Z,43.94
2016-05-19T11:21:41.419Z,44.04
2016-05-19T11:22:41.421Z,44.13
2016-05-19T11:23:41.440Z,44.04
2016-05-19T11:24:41.240Z,44.04
2016-05-19T11:25:41.368Z,44.13
2016-05-19T11:26:41.385Z,44.04
2016-05-19T11:27:41.342Z,44.13
2016-05-19T11:28:41.329Z,43.85
2016-05-19T11:29:41.348Z,43.46
2016-05-19T11:30:41.334Z,43.75
2016-05-19T11:31:41.149Z,43.75
2016-05-19T11:32:41.276Z,43.65
2016-05-19T11:33:43.842Z,43.1
2016-05-19T11:34:41.266Z,43.29
2016-05-19T11:35:41.253Z,43.19
2016-05-19T11:36:41.100Z,42.9
2016-05-19T11:37:41.228Z,43
2016-05-19T11:38:41.199Z,43.17
2016-05-19T11:39:41.217Z,42.97
2016-05-19T11:40:41.188Z,43.38
2016-05-19T11:41:41.175Z,43.29
2016-05-19T11:42:41.164Z,43.37
2016-05-19T11:43:41.135Z,43.55
2016-05-19T11:44:41.137Z,43.29
2016-05-19T11:45:41.108Z,43.37
2016-05-19T11:46:41.096Z,43.37
2016-05-19T11:47:41.137Z,43.48
2016-05-19T11:48:41.147Z,43.46
2016-05-19T11:49:41.190Z,43.27
2016-05-19T11:50:41.219Z,43.37
2016-05-19T11:51:41.261Z,43.46
2016-05-19T11:52:41.250Z,43.65
2016-05-19T11:53:41.095Z,43.55
2016-05-19T11:54:41.252Z,43.55
2016-05-19T11:55:41.254Z,43.37
2016-05-19T11:56:41.255Z,42.97
2016-05-19T11:57:41.248Z,42.8
2016-05-19T11:58:41.241Z,43.58
2016-05-19T11:59:41.233Z,43.19
2016-05-19T12:00:41.242Z,42.8
2016-05-19T12:01:41.063Z,42.61
2016-05-19T12:02:41.208Z,42.8
2016-05-19T12:03:41.212Z,42.52
2016-05-19T12:04:41.185Z,42.8
2016-05-19T12:05:41.065Z,42.71
2016-05-19T12:06:41.008Z,42.61
2016-05-19T12:07:41.167Z,42.71
2016-05-19T12:08:41.327Z,42.8
2016-05-19T12:09:41.127Z,42.61
2016-05-19T12:10:41.114Z,42.61
2016-05-19T12:11:41.103Z,42.52
2016-05-19T12:12:41.168Z,42.23
2016-05-19T12:13:41.093Z,41.94
2016-05-19T12:14:41.127Z,41.55
2016-05-19T12:15:41.083Z,41.67
2016-05-19T12:16:41.056Z,40.99
2016-05-19T12:17:40.871Z,40.99
2016-05-19T12:18:41.014Z,40.82
2016-05-19T12:19:41.002Z,40.44
2016-05-19T12:20:40.988Z,40.44
2016-05-19T12:21:41.099Z,40.72
2016-05-19T12:22:40.977Z,40.63
2016-05-19T12:23:40.980Z,40.61
2016-05-19T12:24:40.968Z,40.15
2016-05-19T12:25:40.923Z,40.15
2016-05-19T12:26:40.926Z,39.86
2016-05-19T12:27:40.898Z,39.57
2016-05-19T12:28:40.901Z,39.47
2016-05-19T12:29:41.090Z,39.2
2016-05-19T12:30:40.874Z,39.29
2016-05-19T12:31:40.877Z,39.2
2016-05-19T12:32:40.865Z,39.39
2016-05-19T12:33:40.836Z,39.29
2016-05-19T12:34:40.839Z,39.2
2016-05-19T12:35:40.887Z,38.71
2016-05-19T12:36:40.828Z,38.71
2016-05-19T12:37:41.143Z,38.91
2016-05-19T12:38:45.084Z,38.53
2016-05-19T12:39:40.773Z,38.62
2016-05-19T12:40:40.761Z,38.43
2016-05-19T12:41:40.748Z,38.62
2016-05-19T12:42:40.736Z,38.53
2016-05-19T12:43:40.566Z,38.81
2016-05-19T12:44:40.709Z,39.39
2016-05-19T12:45:40.993Z,39.29
2016-05-19T12:46:40.683Z,39.69
2016-05-19T12:47:40.514Z,39.66
2016-05-19T12:48:40.657Z,40.24
2016-05-19T12:49:40.644Z,39.94
2016-05-19T12:50:40.632Z,40.32
2016-05-19T12:51:40.635Z,40.22
2016-05-19T12:52:40.621Z,40.42
2016-05-19T12:53:41.061Z,39.54
2016-05-19T12:54:40.596Z,40.03
2016-05-19T12:55:40.426Z,39.64
2016-05-19T12:56:40.554Z,39.26